Terminal Aerodrome Forecast
Issued by NWS New Orleans/Baton Rouge, LA

Home | Current Version | Previous Version | Text Only | Print | Product List | Glossary On
Versions: 1 2 3 4 5 6 7 8 9 10 11 12 13
000
FTUS44 KLIX 310500
TAFBTR
TAF
KBTR 310539Z 3106/0106 13003KT P6SM FEW030 BKN250
      TEMPO 3109/3113 4SM BR
     FM311600 18006KT P6SM SCT030
     FM010000 17004KT P6SM FEW025 SCT250=

USA.gov is the U.S. government's official web portal to all federal, state and local government web resources and services.